Time;durP1;ratioP1;P1;durP2;ratioP2;P2;SDS_P1;SDS_P2;PMS_P1;PMS_P2;Temp;Humidity;BMP_temperature;BMP_pressure;BME280_temperature;BME280_humidity;BME280_pressure;Samples;Min_cycle;Max_cycle;Signal;HPM_P1;HPM_P2
2023/12/17 00:02:15;;;;;;;33.30;18.10;;;;;;;2.19;100.00;102953.11;107059;1248;61666;-83
2023/12/17 00:04:43;;;;;;;30.40;17.60;;;;;;;2.14;100.00;102953.63;106912;1250;71998;-81
2023/12/17 00:07:12;;;;;;;29.40;15.50;;;;;;;2.12;100.00;102953.29;107069;1248;71902;-83
2023/12/17 00:09:42;;;;;;;30.90;17.10;;;;;;;2.13;100.00;102953.63;107036;1255;70789;-83
2023/12/17 00:12:11;;;;;;;33.90;18.70;;;;;;;2.10;100.00;102957.77;107077;1247;63390;-84
2023/12/17 00:14:42;;;;;;;32.00;16.60;;;;;;;2.06;100.00;102957.09;107197;1247;61050;-84
2023/12/17 00:17:11;;;;;;;25.20;14.70;;;;;;;2.11;100.00;102955.36;107260;1244;60843;-85
2023/12/17 00:19:39;;;;;;;30.10;17.30;;;;;;;2.04;100.00;102953.81;107286;1244;70840;-83
2023/12/17 00:22:08;;;;;;;32.30;19.20;;;;;;;2.04;100.00;102957.09;107292;1248;61278;-83
2023/12/17 00:24:38;;;;;;;29.40;17.70;;;;;;;2.08;100.00;102953.98;107247;1246;58972;-83
2023/12/17 00:27:07;;;;;;;30.60;17.00;;;;;;;2.10;100.00;102951.41;107342;1244;73578;-83
2023/12/17 00:29:35;;;;;;;31.30;18.40;;;;;;;2.09;100.00;102948.14;107465;1257;62244;-82
2023/12/17 00:32:07;;;;;;;30.00;16.30;;;;;;;2.03;100.00;102948.14;108502;1245;57529;-83
2023/12/17 00:34:36;;;;;;;28.10;17.10;;;;;;;2.10;100.00;102945.73;109050;1247;61327;-83
2023/12/17 00:37:05;;;;;;;27.80;16.50;;;;;;;2.12;100.00;102946.41;108660;1247;62149;-85
2023/12/17 00:39:34;;;;;;;31.00;15.90;;;;;;;2.14;100.00;102939.88;107393;1247;58980;-85
2023/12/17 00:42:03;;;;;;;31.30;16.50;;;;;;;2.13;100.00;102936.27;107340;1247;73546;-85
2023/12/17 00:44:32;;;;;;;28.90;17.20;;;;;;;2.07;100.00;102938.86;107254;1246;58861;-85
2023/12/17 00:47:02;;;;;;;29.70;17.60;;;;;;;2.03;100.00;102933.52;107218;1248;60363;-84
2023/12/17 00:49:31;;;;;;;31.40;19.10;;;;;;;1.95;100.00;102923.05;107077;1244;72694;-84
2023/12/17 00:52:00;;;;;;;34.10;19.80;;;;;;;2.00;100.00;102930.27;107073;1244;72637;-83
2023/12/17 00:54:28;;;;;;;33.10;18.80;;;;;;;2.00;100.00;102931.65;107066;1244;70801;-85
2023/12/17 00:56:57;;;;;;;37.40;22.40;;;;;;;2.02;100.00;102932.85;107087;1257;64428;-79
2023/12/17 00:59:26;;;;;;;37.20;21.70;;;;;;;2.07;100.00;102932.84;107069;1245;58184;-79
2023/12/17 01:01:55;;;;;;;32.50;18.50;;;;;;;2.07;100.00;102928.70;107016;1247;60425;-79
2023/12/17 01:04:24;;;;;;;29.20;18.10;;;;;;;2.08;100.00;102919.08;107133;1248;70449;-81
2023/12/17 01:06:53;;;;;;;28.70;17.40;;;;;;;2.06;100.00;102912.73;106999;1248;72103;-79
2023/12/17 01:09:22;;;;;;;28.60;15.90;;;;;;;2.00;100.00;102910.52;107015;1248;70068;-80
2023/12/17 01:11:51;;;;;;;28.30;18.00;;;;;;;1.91;100.00;102908.81;107183;1244;74506;-78
2023/12/17 01:14:19;;;;;;;30.30;16.30;;;;;;;1.82;100.00;102908.64;107202;1248;61489;-84
2023/12/17 01:16:48;;;;;;;25.90;16.30;;;;;;;1.79;100.00;102902.80;107339;1248;60677;-84
2023/12/17 01:19:17;;;;;;;27.80;17.10;;;;;;;1.72;100.00;102896.27;107183;1257;61142;-83
2023/12/17 01:21:46;;;;;;;32.00;18.10;;;;;;;1.64;100.00;102885.45;107444;1245;69424;-84
2023/12/17 01:24:15;;;;;;;30.20;18.40;;;;;;;1.54;100.00;102879.45;107436;1245;59733;-84
2023/12/17 01:26:44;;;;;;;32.70;18.50;;;;;;;1.52;100.00;102879.64;107250;1245;73810;-83
2023/12/17 01:29:12;;;;;;;32.90;19.30;;;;;;;1.47;100.00;102876.19;107327;1244;62647;-84
2023/12/17 01:31:41;;;;;;;33.40;20.00;;;;;;;1.43;100.00;102875.85;107199;1246;59334;-83
2023/12/17 01:34:10;;;;;;;36.20;19.90;;;;;;;1.40;100.00;102874.30;107216;1244;62122;-81
2023/12/17 01:36:39;;;;;;;28.00;18.40;;;;;;;1.31;100.00;102875.67;107125;1245;70253;-84
2023/12/17 01:39:09;;;;;;;31.00;18.70;;;;;;;1.26;100.00;102876.01;107256;1244;70719;-82
2023/12/17 01:41:38;;;;;;;32.30;18.80;;;;;;;1.19;100.00;102873.77;107228;1247;73346;-79
2023/12/17 01:44:07;;;;;;;30.10;18.50;;;;;;;1.19;100.00;102870.17;107077;1245;62443;-78
2023/12/17 01:46:39;;;;;;;27.60;17.50;;;;;;;1.15;100.00;102868.62;107093;1245;61110;-83
2023/12/17 01:49:08;;;;;;;31.70;18.20;;;;;;;1.10;100.00;102871.53;107150;1245;72918;-84
2023/12/17 01:51:38;;;;;;;27.50;15.90;;;;;;;0.97;100.00;102871.16;107293;1248;69701;-83
2023/12/17 01:54:07;;;;;;;29.40;16.90;;;;;;;0.88;100.00;102867.20;107654;1255;59486;-86
2023/12/17 01:56:36;;;;;;;28.80;15.90;;;;;;;0.77;100.00;102858.08;107247;1255;71132;-85
2023/12/17 01:59:05;;;;;;;27.60;15.60;;;;;;;0.71;100.00;102855.66;106983;1248;60313;-82
2023/12/17 02:01:34;;;;;;;24.90;15.40;;;;;;;0.61;100.00;102849.63;107285;1242;59169;-82
2023/12/17 02:04:07;;;;;;;35.40;18.60;;;;;;;0.49;100.00;102849.94;107189;1244;70692;-81
2023/12/17 02:06:38;;;;;;;25.90;16.20;;;;;;;0.43;100.00;102845.28;107273;1244;69890;-83
2023/12/17 02:09:08;;;;;;;32.00;19.00;;;;;;;0.35;100.00;102846.27;107193;1244;68458;-81
2023/12/17 02:11:37;;;;;;;30.60;17.50;;;;;;;0.29;100.00;102845.58;107150;1244;70360;-82
2023/12/17 02:14:07;;;;;;;34.00;19.90;;;;;;;0.24;100.00;102845.38;107164;1244;61415;-81
2023/12/17 02:16:36;;;;;;;33.30;19.50;;;;;;;0.17;100.00;102843.63;107172;1245;61234;-81
2023/12/17 02:19:05;;;;;;;37.30;21.00;;;;;;;0.17;100.00;102842.25;107201;1243;73512;-83
2023/12/17 02:21:34;;;;;;;33.80;20.10;;;;;;;0.11;100.00;102837.60;107164;1246;70017;-81
2023/12/17 02:24:03;;;;;;;35.60;19.50;;;;;;;0.01;100.00;102839.43;107203;1245;68148;-81
2023/12/17 02:26:36;;;;;;;34.60;20.80;;;;;;;-0.03;100.00;102843.54;107109;1245;72015;-81
2023/12/17 02:29:05;;;;;;;34.20;20.70;;;;;;;-0.09;100.00;102839.02;107144;1242;62478;-81
2023/12/17 02:31:34;;;;;;;34.10;22.20;;;;;;;-0.15;100.00;102836.09;107163;1251;59702;-82
2023/12/17 02:34:03;;;;;;;33.20;21.30;;;;;;;-0.21;100.00;102836.74;107285;1256;70475;-84
2023/12/17 02:36:32;;;;;;;34.00;21.20;;;;;;;-0.26;100.00;102837.39;107234;1245;69996;-84
2023/12/17 02:39:02;;;;;;;34.90;20.90;;;;;;;-0.34;100.00;102840.60;107447;1244;68606;-84
2023/12/17 02:41:31;;;;;;;35.60;22.90;;;;;;;-0.43;100.00;102845.48;107327;1245;71088;-84
2023/12/17 02:44:02;;;;;;;36.90;23.10;;;;;;;-0.46;100.00;102848.05;107927;1244;59871;-81
2023/12/17 02:46:31;;;;;;;27.40;17.20;;;;;;;-0.55;100.00;102847.46;108108;1243;58992;-83
2023/12/17 02:49:00;;;;;;;33.60;20.40;;;;;;;-0.61;100.00;102853.23;108018;1244;72558;-84
2023/12/17 02:51:31;;;;;;;30.20;18.00;;;;;;;-0.58;100.00;102856.67;107391;1245;72474;-83
2023/12/17 02:53:59;;;;;;;33.40;20.20;;;;;;;-0.61;100.00;102855.95;107253;1244;70270;-82
2023/12/17 02:56:28;;;;;;;32.70;20.80;;;;;;;-0.65;100.00;102856.09;107270;1245;72369;-82
2023/12/17 02:58:57;;;;;;;30.60;18.70;;;;;;;-0.67;100.00;102858.65;107257;1244;59454;-79
2023/12/17 03:01:25;;;;;;;29.30;17.80;;;;;;;-0.71;100.00;102862.73;107224;1245;60362;-82
2023/12/17 03:03:54;;;;;;;29.00;15.80;;;;;;;-0.76;100.00;102869.35;107266;1256;72565;-83
2023/12/17 03:06:23;;;;;;;28.40;17.40;;;;;;;-0.79;100.00;102863.69;107299;1256;70724;-84
2023/12/17 03:08:52;;;;;;;29.20;17.20;;;;;;;-0.86;100.00;102864.48;107313;1243;68394;-85
2023/12/17 03:11:21;;;;;;;25.30;16.20;;;;;;;-0.87;100.00;102869.77;107625;1245;70940;-83
2023/12/17 03:13:50;;;;;;;27.00;17.10;;;;;;;-0.95;100.00;102871.40;107338;1245;60270;-85
2023/12/17 03:16:19;;;;;;;34.90;19.50;;;;;;;-1.01;100.00;102866.39;107317;1244;60269;-81
2023/12/17 03:18:47;;;;;;;34.60;19.90;;;;;;;-1.04;100.00;102861.56;107255;1248;73239;-83
2023/12/17 03:21:18;;;;;;;36.00;20.60;;;;;;;-1.07;100.00;102861.20;107228;1256;70092;-85
2023/12/17 03:23:46;;;;;;;34.50;19.80;;;;;;;-1.12;100.00;102861.83;107258;1254;70384;-84
2023/12/17 03:26:16;;;;;;;37.80;22.40;;;;;;;-1.10;100.00;102865.60;107299;1249;73473;-85
2023/12/17 03:28:45;;;;;;;36.40;21.20;;;;;;;-1.10;100.00;102866.80;107255;1245;59858;-82
2023/12/17 03:31:15;;;;;;;32.10;20.50;;;;;;;-1.08;100.00;102864.42;106959;1244;60995;-82
2023/12/17 03:33:45;;;;;;;32.90;19.70;;;;;;;-1.11;100.00;102860.13;107080;1245;73015;-81
2023/12/17 03:36:16;;;;;;;32.50;19.40;;;;;;;-1.11;100.00;102849.35;107042;1245;72121;-81
2023/12/17 03:38:46;;;;;;;34.10;20.00;;;;;;;-1.11;100.00;102846.45;107082;1248;68879;-81
2023/12/17 03:41:27;;;;;;;33.50;20.10;;;;;;;-1.11;100.00;102838.23;107038;1248;71507;-80
2023/12/17 03:43:57;;;;;;;39.80;20.80;;;;;;;-1.12;100.00;102834.64;107074;1245;62840;-83
2023/12/17 03:46:26;;;;;;;33.40;20.10;;;;;;;-1.14;100.00;102831.52;106954;1244;61447;-80
2023/12/17 03:48:55;;;;;;;32.40;18.70;;;;;;;-1.15;100.00;102829.30;107337;1245;73022;-83
2023/12/17 03:51:24;;;;;;;31.50;19.90;;;;;;;-1.15;100.00;102825.53;107297;1245;70839;-82
2023/12/17 03:53:53;;;;;;;37.50;21.80;;;;;;;-1.15;100.00;102828.11;107114;1244;70747;-82
2023/12/17 03:56:24;;;;;;;34.80;22.30;;;;;;;-1.14;100.00;102836.33;107150;1255;74170;-84
2023/12/17 03:58:53;;;;;;;44.30;25.40;;;;;;;-1.11;100.00;102845.92;107245;1248;62601;-82
2023/12/17 04:01:22;;;;;;;40.30;25.10;;;;;;;-1.09;100.00;102842.02;107082;1257;61629;-80
2023/12/17 04:03:50;;;;;;;38.60;23.90;;;;;;;-1.14;100.00;102839.41;107049;1248;71552;-80
2023/12/17 04:06:19;;;;;;;34.10;23.00;;;;;;;-1.11;100.00;102831.73;107152;1245;70421;-80
2023/12/17 04:08:52;;;;;;;36.60;21.50;;;;;;;-1.20;100.00;102831.63;106986;1244;67829;-82
2023/12/17 04:11:23;;;;;;;38.70;21.10;;;;;;;-1.22;100.00;102827.17;107008;1255;71644;-81
2023/12/17 04:13:52;;;;;;;37.70;19.90;;;;;;;-1.22;100.00;102822.22;107170;1244;59926;-82
2023/12/17 04:16:21;;;;;;;39.20;20.20;;;;;;;-1.22;100.00;102816.23;106988;1246;60310;-81
2023/12/17 04:18:50;;;;;;;34.90;20.30;;;;;;;-1.25;100.00;102812.80;107079;1256;71899;-83
2023/12/17 04:21:19;;;;;;;27.30;16.90;;;;;;;-1.26;100.00;102800.80;107050;1250;70426;-80
2023/12/17 04:23:48;;;;;;;29.30;18.90;;;;;;;-1.19;100.00;102802.25;107224;1245;70329;-81
2023/12/17 04:26:17;;;;;;;27.70;17.00;;;;;;;-1.17;100.00;102800.39;107349;1252;72074;-83
2023/12/17 04:28:47;;;;;;;22.00;13.90;;;;;;;-1.14;100.00;102798.02;107424;1244;59629;-84
2023/12/17 04:31:22;;;;;;;23.20;13.50;;;;;;;-1.12;100.00;102794.11;107229;1256;61617;-84
2023/12/17 04:33:51;;;;;;;21.30;12.40;;;;;;;-1.09;100.00;102790.02;107345;1244;72294;-82
2023/12/17 04:36:20;;;;;;;18.70;10.80;;;;;;;-1.09;100.00;102787.29;107440;1245;71277;-78
2023/12/17 04:38:49;;;;;;;17.90;12.40;;;;;;;-1.10;100.00;102794.63;107403;1245;67647;-84
2023/12/17 04:41:18;;;;;;;22.20;12.30;;;;;;;-1.10;100.00;102793.77;107396;1244;72017;-83
2023/12/17 04:43:47;;;;;;;28.20;17.30;;;;;;;-1.10;100.00;102791.89;107015;1251;62363;-85
2023/12/17 04:46:15;;;;;;;21.90;14.10;;;;;;;-1.09;100.00;102794.30;107087;1244;61342;-85
2023/12/17 04:48:44;;;;;;;22.60;13.60;;;;;;;-1.04;100.00;102797.77;107205;1256;71673;-85
2023/12/17 04:51:13;;;;;;;22.50;13.90;;;;;;;-1.01;100.00;102788.22;107175;1245;69481;-77
2023/12/17 04:53:42;;;;;;;23.30;13.90;;;;;;;-0.97;100.00;102781.23;107010;1248;67911;-81
2023/12/17 04:56:11;;;;;;;24.80;14.40;;;;;;;-0.94;100.00;102783.65;107281;1245;72866;-82
2023/12/17 04:58:40;;;;;;;21.40;14.40;;;;;;;-0.89;100.00;102782.84;107493;1245;61467;-79
2023/12/17 05:01:08;;;;;;;23.00;14.60;;;;;;;-0.83;100.00;102782.89;107113;1245;62377;-80
2023/12/17 05:03:38;;;;;;;22.60;13.50;;;;;;;-0.81;100.00;102777.94;107102;1245;71333;-78
2023/12/17 05:06:09;;;;;;;19.90;12.20;;;;;;;-0.78;100.00;102773.86;107174;1252;71127;-79
2023/12/17 05:08:38;;;;;;;18.70;12.50;;;;;;;-0.79;100.00;102765.98;107342;1244;70488;-82
2023/12/17 05:11:06;;;;;;;19.80;12.30;;;;;;;-0.78;100.00;102759.99;107209;1244;73309;-81
2023/12/17 05:13:35;;;;;;;19.40;11.90;;;;;;;-0.79;100.00;102752.81;107195;1244;59552;-83
2023/12/17 05:16:05;;;;;;;18.80;12.40;;;;;;;-0.81;100.00;102754.00;107225;1245;60230;-83
2023/12/17 05:18:33;;;;;;;22.00;12.90;;;;;;;-0.81;100.00;102746.13;107283;1244;73916;-81
2023/12/17 05:21:03;;;;;;;26.50;15.20;;;;;;;-0.84;100.00;102737.38;107185;1244;71723;-81
2023/12/17 05:23:31;;;;;;;29.90;15.70;;;;;;;-0.81;100.00;102742.35;107065;1251;70496;-79
2023/12/17 05:26:00;;;;;;;27.80;16.10;;;;;;;-0.82;100.00;102750.05;107412;1244;74160;-77
2023/12/17 05:28:29;;;;;;;30.30;16.80;;;;;;;-0.79;100.00;102746.65;107412;1248;62200;-82
2023/12/17 05:30:58;;;;;;;27.20;15.80;;;;;;;-0.76;100.00;102739.31;107351;1248;59164;-76
2023/12/17 05:33:28;;;;;;;28.20;17.30;;;;;;;-0.75;100.00;102735.71;107236;1245;73115;-79
2023/12/17 05:35:57;;;;;;;25.80;15.90;;;;;;;-0.74;100.00;102741.71;107387;1245;72298;-77
2023/12/17 05:38:28;;;;;;;21.10;15.10;;;;;;;-0.71;100.00;102744.98;107188;1245;70512;-78
2023/12/17 05:40:57;;;;;;;25.80;17.10;;;;;;;-0.74;100.00;102753.00;107383;1244;73096;-77
2023/12/17 05:43:25;;;;;;;22.20;14.90;;;;;;;-0.71;100.00;102759.02;107189;1245;60798;-76
2023/12/17 05:45:54;;;;;;;20.90;13.20;;;;;;;-0.69;100.00;102762.64;107208;1255;60297;-77
2023/12/17 05:48:26;;;;;;;20.20;13.10;;;;;;;-0.69;100.00;102759.89;107215;1248;73146;-75
2023/12/17 05:50:56;;;;;;;20.60;12.90;;;;;;;-0.65;100.00;102756.85;107359;1245;71992;-75
2023/12/17 05:53:25;;;;;;;23.50;12.50;;;;;;;-0.61;100.00;102756.88;107374;1244;69342;-74
2023/12/17 05:56:06;;;;;;;16.00;10.30;;;;;;;-0.57;100.00;102761.53;107374;1245;72094;-76
2023/12/17 05:58:35;;;;;;;17.40;10.90;;;;;;;-0.54;100.00;102758.46;107444;1244;61045;-77
2023/12/17 06:01:04;;;;;;;19.40;13.80;;;;;;;-0.52;100.00;102755.38;107357;1245;59076;-75
2023/12/17 06:03:43;;;;;;;21.70;13.50;;;;;;;-0.48;100.00;102760.20;107393;1245;70744;-78
2023/12/17 06:06:12;;;;;;;21.30;13.00;;;;;;;-0.48;100.00;102754.39;107345;1256;71599;-78
2023/12/17 06:08:41;;;;;;;25.20;13.00;;;;;;;-0.43;100.00;102748.95;107443;1245;68422;-79
2023/12/17 06:11:16;;;;;;;19.40;12.10;;;;;;;-0.42;100.00;102749.28;107450;1245;71144;-80
2023/12/17 06:13:45;;;;;;;16.80;10.60;;;;;;;-0.33;100.00;102753.44;107430;1244;59692;-79
2023/12/17 06:16:14;;;;;;;15.90;10.80;;;;;;;-0.25;100.00;102754.52;107496;1251;59382;-82
2023/12/17 06:18:43;;;;;;;17.70;10.70;;;;;;;-0.22;100.00;102757.95;107525;1252;71357;-81
2023/12/17 06:21:24;;;;;;;16.70;11.00;;;;;;;-0.12;100.00;102758.52;107471;1245;71815;-78
2023/12/17 06:23:57;;;;;;;19.70;10.50;;;;;;;-0.02;100.00;102756.00;107504;1255;69059;-79
2023/12/17 06:26:27;;;;;;;24.10;14.40;;;;;;;0.08;100.00;102754.83;107430;1245;74038;-79
2023/12/17 06:28:56;;;;;;;22.50;12.00;;;;;;;0.18;100.00;102756.92;107267;1247;61617;-79
2023/12/17 06:31:25;;;;;;;19.70;10.00;;;;;;;0.19;100.00;102739.11;107386;1247;59791;-80
2023/12/17 06:33:54;;;;;;;22.10;11.50;;;;;;;0.27;100.00;102749.23;107419;1256;69860;-84
2023/12/17 06:36:24;;;;;;;21.40;12.80;;;;;;;0.33;100.00;102746.52;107680;1244;71740;-80
2023/12/17 06:38:53;;;;;;;26.20;14.30;;;;;;;0.36;100.00;102746.19;107492;1243;70042;-84
2023/12/17 06:41:21;;;;;;;26.10;13.40;;;;;;;0.46;100.00;102742.94;107538;1244;74372;-80
2023/12/17 06:43:50;;;;;;;30.20;14.10;;;;;;;0.52;100.00;102740.89;107497;1245;61077;-80
2023/12/17 06:46:19;;;;;;;24.90;13.80;;;;;;;0.61;100.00;102745.38;107544;1251;58569;-78
2023/12/17 06:48:51;;;;;;;25.30;14.10;;;;;;;0.69;100.00;102746.58;107348;1244;71382;-78
2023/12/17 06:51:21;;;;;;;23.90;13.60;;;;;;;0.82;100.00;102744.88;107355;1243;71021;-80
2023/12/17 06:53:50;;;;;;;20.90;12.80;;;;;;;0.92;100.00;102741.45;107508;1256;70114;-78
2023/12/17 06:56:21;;;;;;;18.40;11.60;;;;;;;1.02;100.00;102736.47;107358;1248;74119;-78
2023/12/17 06:58:51;;;;;;;18.70;11.00;;;;;;;1.12;100.00;102735.95;107389;1248;59974;-79
2023/12/17 07:01:20;;;;;;;20.20;12.30;;;;;;;1.21;100.00;102729.76;107681;1254;60268;-84
2023/12/17 07:03:50;;;;;;;19.80;11.30;;;;;;;1.34;100.00;102729.73;107438;1244;73334;-83
2023/12/17 07:06:19;;;;;;;19.60;10.80;;;;;;;1.45;100.00;102723.53;107504;1243;72652;-81
2023/12/17 07:08:48;;;;;;;21.90;11.20;;;;;;;1.54;100.00;102720.77;107310;1244;69599;-73
2023/12/17 07:11:17;;;;;;;17.90;10.80;;;;;;;1.66;100.00;102722.10;107370;1245;71790;-82
2023/12/17 07:13:46;;;;;;;18.70;11.30;;;;;;;1.73;100.00;102716.75;107506;1245;59930;-82
2023/12/17 07:16:29;;;;;;;18.40;11.40;;;;;;;1.86;100.00;102719.27;107770;1244;59555;-82
2023/12/17 07:18:57;;;;;;;19.00;11.20;;;;;;;1.87;100.00;102714.29;107686;1244;72667;-75
2023/12/17 07:21:26;;;;;;;18.70;10.50;;;;;;;1.96;100.00;102711.33;107877;1243;71983;-75
2023/12/17 07:23:56;;;;;;;21.70;11.10;;;;;;;2.10;100.00;102715.05;107437;1255;69187;-75
2023/12/17 07:26:25;;;;;;;20.40;11.30;;;;;;;2.23;100.00;102715.15;107445;1245;63018;-75
2023/12/17 07:28:53;;;;;;;21.40;12.10;;;;;;;2.32;100.00;102714.06;107395;1250;61907;-75
2023/12/17 07:31:22;;;;;;;26.40;13.40;;;;;;;2.43;100.00;102714.34;107448;1242;59008;-75
2023/12/17 07:33:51;;;;;;;21.90;12.50;;;;;;;2.54;100.00;102707.90;107371;1245;71497;-75
2023/12/17 07:36:20;;;;;;;21.10;11.90;;;;;;;2.65;100.00;102704.71;107416;1245;62206;-75
2023/12/17 07:38:49;;;;;;;21.60;12.70;;;;;;;2.79;100.00;102693.42;107227;1256;58977;-75
2023/12/17 07:41:18;;;;;;;24.00;12.50;;;;;;;2.92;100.00;102686.26;107359;1248;73737;-75
2023/12/17 07:43:46;;;;;;;24.00;12.70;;;;;;;3.01;100.00;102681.17;107457;1244;58951;-84
2023/12/17 07:46:15;;;;;;;24.90;14.70;;;;;;;3.14;100.00;102686.05;107428;1245;59097;-77
2023/12/17 07:48:44;;;;;;;24.40;14.30;;;;;;;3.28;100.00;102690.90;107437;1244;62919;-76
2023/12/17 07:51:13;;;;;;;27.50;14.80;;;;;;;3.35;100.00;102692.20;107471;1245;60888;-81
2023/12/17 07:53:42;;;;;;;21.20;12.30;;;;;;;3.45;100.00;102695.70;107572;1244;59829;-70
2023/12/17 07:56:11;;;;;;;25.80;14.50;;;;;;;3.52;100.00;102688.74;107784;1245;72011;-74
2023/12/17 07:58:40;;;;;;;28.50;15.00;;;;;;;3.69;100.00;102694.05;107874;1245;58882;-73
2023/12/17 08:01:09;;;;;;;28.90;15.20;;;;;;;3.86;100.00;102693.50;107238;1245;58972;-72
2023/12/17 08:03:38;;;;;;;21.30;12.40;;;;;;;4.03;100.00;102688.45;107029;1245;73063;-75
2023/12/17 08:06:08;;;;;;;20.60;14.10;;;;;;;4.17;100.00;102690.66;107087;1244;71645;-72
2023/12/17 08:08:37;;;;;;;21.10;12.90;;;;;;;4.35;100.00;102687.31;107164;1245;59385;-75
2023/12/17 08:11:12;;;;;;;23.50;12.90;;;;;;;4.46;100.00;102685.58;107267;1244;62460;-74
2023/12/17 08:13:45;;;;;;;18.10;10.10;;;;;;;4.62;100.00;102681.52;106970;1243;59059;-74
2023/12/17 08:16:14;;;;;;;15.90;8.90;;;;;;;4.81;100.00;102681.05;107064;1243;59376;-76
2023/12/17 08:18:42;;;;;;;18.40;9.90;;;;;;;4.92;100.00;102677.23;107057;1244;73342;-74
2023/12/17 08:21:11;;;;;;;17.90;9.90;;;;;;;4.96;100.00;102677.85;107174;1245;72511;-74
2023/12/17 08:23:40;;;;;;;17.00;9.50;;;;;;;5.11;100.00;102674.98;107356;1245;59716;-74
2023/12/17 08:26:11;;;;;;;15.10;8.60;;;;;;;5.33;100.00;102667.31;106994;1247;73709;-73
2023/12/17 08:28:40;;;;;;;15.90;8.10;;;;;;;5.40;100.00;102667.54;109411;1241;61272;-74
2023/12/17 08:31:09;;;;;;;20.00;10.30;;;;;;;5.44;100.00;102669.88;108020;1244;61482;-75
2023/12/17 08:33:39;;;;;;;15.00;8.60;;;;;;;5.46;100.00;102669.66;107244;1245;63582;-73
2023/12/17 08:36:09;;;;;;;15.20;9.00;;;;;;;5.49;100.00;102664.92;107216;1246;61647;-73
2023/12/17 08:38:38;;;;;;;16.30;7.90;;;;;;;5.54;100.00;102662.05;107287;1245;61133;-72
2023/12/17 08:41:07;;;;;;;16.00;7.90;;;;;;;5.59;100.00;102659.17;107323;1252;62456;-73
2023/12/17 08:43:36;;;;;;;14.60;7.20;;;;;;;5.57;100.00;102658.54;107415;1246;61256;-74
2023/12/17 08:46:06;;;;;;;18.40;8.50;;;;;;;5.57;100.00;102649.73;107302;1241;61878;-73
2023/12/17 08:48:35;;;;;;;13.70;7.00;;;;;;;5.61;100.00;102645.50;107307;1245;62724;-72
2023/12/17 08:51:05;;;;;;;15.00;8.10;;;;;;;5.72;100.00;102638.34;108051;1242;62977;-73
2023/12/17 08:53:34;;;;;;;16.40;8.40;;;;;;;5.81;100.00;102641.09;107320;1242;70779;-73
2023/12/17 08:56:04;;;;;;;12.80;7.00;;;;;;;5.86;100.00;102640.48;107401;1245;64417;-73
2023/12/17 08:58:34;;;;;;;10.30;5.50;;;;;;;5.96;100.00;102637.69;107383;1248;57587;-75
2023/12/17 09:01:06;;;;;;;13.40;5.80;;;;;;;6.10;100.00;102634.76;107419;1241;61003;-76
2023/12/17 09:03:35;;;;;;;5.80;3.40;;;;;;;6.18;100.00;102633.90;107403;1241;63322;-75
2023/12/17 09:06:08;;;;;;;8.00;5.10;;;;;;;6.26;100.00;102623.69;107468;1255;61388;-75
2023/12/17 09:08:40;;;;;;;7.70;4.40;;;;;;;6.30;100.00;102622.19;107459;1245;60360;-75
2023/12/17 09:11:09;;;;;;;10.30;5.80;;;;;;;6.43;100.00;102617.02;107283;1254;72669;-75
2023/12/17 09:13:38;;;;;;;8.60;4.60;;;;;;;6.57;100.00;102612.66;107647;1245;58646;-75
2023/12/17 09:16:07;;;;;;;10.40;4.40;;;;;;;6.82;100.00;102607.89;107599;1241;59372;-77
2023/12/17 09:18:39;;;;;;;11.10;5.70;;;;;;;6.93;100.00;102601.52;107320;1245;73894;-73
2023/12/17 09:21:08;;;;;;;10.20;4.50;;;;;;;7.05;100.00;102604.50;107368;1245;61768;-73
2023/12/17 09:23:37;;;;;;;8.50;4.50;;;;;;;7.15;100.00;102601.27;107387;1246;60122;-73
2023/12/17 09:26:06;;;;;;;8.30;3.90;;;;;;;7.16;100.00;102594.51;107288;1251;62827;-73
2023/12/17 09:28:36;;;;;;;7.50;4.00;;;;;;;7.23;100.00;102589.09;107360;1252;61113;-73
2023/12/17 09:31:08;;;;;;;9.40;5.00;;;;;;;7.21;100.00;102579.80;107368;1245;59000;-82
2023/12/17 09:33:38;;;;;;;6.30;3.90;;;;;;;7.22;100.00;102574.73;107349;1249;62751;-72
2023/12/17 09:36:08;;;;;;;7.80;3.40;;;;;;;7.23;100.00;102570.73;107362;1245;61405;-73
2023/12/17 09:38:37;;;;;;;11.20;4.10;;;;;;;7.25;100.00;102566.69;107362;1255;59802;-74
2023/12/17 09:41:11;;;;;;;8.70;4.50;;;;;;;7.20;100.00;102564.59;107349;1245;72362;-72
2023/12/17 09:43:40;;;;;;;12.80;5.80;;;;;;;7.29;100.00;102561.88;107310;1245;60670;-70
2023/12/17 09:46:09;;;;;;;11.50;5.20;;;;;;;7.42;100.00;102558.73;107404;1245;59103;-79
2023/12/17 09:48:38;;;;;;;11.20;5.50;;;;;;;7.43;100.00;102557.30;107341;1255;61956;-70
2023/12/17 09:51:12;;;;;;;10.30;4.80;;;;;;;7.65;100.00;102557.50;107456;1244;61539;-71
2023/12/17 09:53:42;;;;;;;8.60;4.80;;;;;;;7.86;100.00;102548.19;107315;1242;70337;-71
2023/12/17 09:56:12;;;;;;;8.50;4.90;;;;;;;7.98;100.00;102545.02;107206;1246;63438;-72
2023/12/17 09:58:41;;;;;;;8.50;4.70;;;;;;;8.13;100.00;102545.75;109428;1243;57624;-70
2023/12/17 10:01:10;;;;;;;6.60;4.20;;;;;;;8.27;100.00;102548.57;107254;1245;59220;-71
2023/12/17 10:03:40;;;;;;;9.90;4.50;;;;;;;8.42;100.00;102540.83;107220;1241;73456;-71
2023/12/17 10:06:10;;;;;;;6.30;3.60;;;;;;;8.45;100.00;102538.79;107253;1245;62105;-72
2023/12/17 10:08:39;;;;;;;8.40;3.30;;;;;;;8.50;100.00;102539.67;107373;1245;70320;-71
2023/12/17 10:11:09;;;;;;;18.30;8.60;;;;;;;8.59;100.00;102541.27;107377;1256;64883;-72
2023/12/17 10:13:38;;;;;;;8.80;4.80;;;;;;;8.66;100.00;102542.23;107418;1252;61699;-71
2023/12/17 10:16:07;;;;;;;7.90;3.80;;;;;;;8.73;100.00;102543.55;107326;1244;60849;-71
2023/12/17 10:18:36;;;;;;;5.00;3.00;;;;;;;8.79;100.00;102543.52;107335;1245;62479;-73
2023/12/17 10:21:08;;;;;;;6.20;3.90;;;;;;;8.80;100.00;102551.82;107346;1242;71624;-72
2023/12/17 10:23:49;;;;;;;7.80;4.20;;;;;;;8.78;100.00;102556.41;107187;1242;70170;-67
2023/12/17 10:28:00;;;;;;;11.10;6.90;;;;;;;8.35;100.00;102557.34;104350;1286;599965;-82
2023/12/17 10:30:32;;;;;;;8.90;4.30;;;;;;;8.29;100.00;102547.14;106242;1267;60743;-74
2023/12/17 10:33:02;;;;;;;6.80;3.60;;;;;;;8.35;100.00;102549.71;106936;1250;61995;-72
2023/12/17 10:35:33;;;;;;;6.10;3.80;;;;;;;8.31;100.00;102540.64;106850;1254;62157;-70
2023/12/17 10:38:07;;;;;;;7.40;4.30;;;;;;;8.26;100.00;102530.20;106827;1251;61975;-83
2023/12/17 10:40:40;;;;;;;6.60;3.90;;;;;;;8.15;100.00;102528.67;106685;1252;204443;-80
2023/12/17 10:43:12;;;;;;;10.10;4.60;;;;;;;8.12;100.00;102529.27;106881;1251;73695;-72
2023/12/17 10:45:43;;;;;;;8.40;4.10;;;;;;;8.12;100.00;102520.96;106727;1251;59277;-78
2023/12/17 10:48:15;;;;;;;5.20;2.30;;;;;;;8.13;100.00;102514.67;106800;1251;57553;-74
2023/12/17 10:50:46;;;;;;;;;;;;;;;8.12;100.00;102506.55;106906;1251;61866;-76
2023/12/17 10:53:15;;;;;;;6.10;3.70;;;;;;;8.09;100.00;102504.77;106737;1251;71677;-70
2023/12/17 10:55:44;;;;;;;16.40;10.90;;;;;;;8.07;100.00;102506.04;109023;1249;70067;-71
2023/12/17 10:58:19;;;;;;;7.50;4.90;;;;;;;8.06;100.00;102507.97;108924;1247;64014;-72
2023/12/17 11:00:48;;;;;;;7.30;3.90;;;;;;;8.13;100.00;102504.77;109060;1248;60347;-70
2023/12/17 11:03:18;;;;;;;8.80;4.40;;;;;;;8.17;100.00;102501.02;109063;1246;59678;-70
2023/12/17 11:05:59;;;;;;;7.50;4.60;;;;;;;8.16;100.00;102500.53;109085;1248;62746;-70
2023/12/17 11:08:29;;;;;;;8.00;4.20;;;;;;;8.22;100.00;102497.19;108926;1247;62877;-74
2023/12/17 11:10:59;;;;;;;5.90;3.60;;;;;;;8.29;100.00;102499.21;109141;1246;70374;-74
2023/12/17 11:13:28;;;;;;;7.50;4.50;;;;;;;8.29;100.00;102500.77;108983;1248;63501;-71
2023/12/17 11:16:20;;;;;;;14.30;7.80;;;;;;;8.25;100.00;102497.28;109045;1248;57274;-71